Llanrwst, United Kingdom
Current Conditions -  °F | °C
As of 5:50 AM on Sunday 26 Oct 2014 (Local Time) from EGOV Reporting Station
Light Rain Light Rain  
Wind Chill: 55°   Ceiling: 3600
Heat Index: 55°   Visibility: 5mi
Dew Point: 54°   Wind: 31mph
Humidity: 94%   Direction: 220°SW
Pressure: 29.94"   Gusts: NA
Location:  53.14°N, 3.8°W
Report Text: EGOV 260450Z AUTO 22027KT 8000 -RADZ FEW019/// SCT029/// BKN036/// 13/12 Q1014
Loading
Personal Weather Stations






























Interactive Weather Map
Tropical Storm Tracking
New forecast layout! Learn more

10-Day Weather Forecast

Advertisements
Track Severe Weather on mobile